createdAt,value
2022-09-20T00:01:36.013Z,12.59
2022-09-20T00:04:06.984Z,12.58
2022-09-20T00:06:35.468Z,12.57
2022-09-20T00:09:04.056Z,12.64
2022-09-20T00:11:35.425Z,12.63
2022-09-20T00:14:08.459Z,12.63
2022-09-20T00:16:39.806Z,12.59
2022-09-20T00:19:09.080Z,12.57
2022-09-20T00:21:37.830Z,12.56
2022-09-20T00:24:06.115Z,12.62
2022-09-20T00:26:34.107Z,12.63
2022-09-20T00:29:01.722Z,12.57
2022-09-20T00:31:29.843Z,12.58
2022-09-20T00:34:17.361Z,12.66
2022-09-20T00:36:45.744Z,12.76
2022-09-20T00:39:16.165Z,12.71
2022-09-20T00:41:45.289Z,12.61
2022-09-20T00:44:42.779Z,12.57
2022-09-20T00:47:43.808Z,12.51
2022-09-20T00:50:36.215Z,12.47
2022-09-20T00:53:26.557Z,12.53
2022-09-20T00:56:09.899Z,12.51
2022-09-20T00:58:44.180Z,12.57
2022-09-20T01:01:12.081Z,12.72
2022-09-20T01:03:42.239Z,12.73
2022-09-20T01:06:15.403Z,12.64
2022-09-20T01:08:49.695Z,12.61
2022-09-20T01:11:19.211Z,12.65
2022-09-20T01:13:46.899Z,12.62
2022-09-20T01:16:17.344Z,12.58
2022-09-20T01:18:46.287Z,12.50
2022-09-20T01:21:15.170Z,12.40
2022-09-20T01:24:31.125Z,12.24
2022-09-20T01:27:22.451Z,12.14
2022-09-20T01:30:28.999Z,12.14
2022-09-20T01:33:18.754Z,11.92
2022-09-20T01:35:50.235Z,11.89
2022-09-20T01:38:27.791Z,11.87
2022-09-20T01:41:01.802Z,11.91
2022-09-20T01:43:46.498Z,11.94
2022-09-20T01:46:33.618Z,12.00
2022-09-20T01:49:21.146Z,11.88
2022-09-20T01:52:03.006Z,11.85
2022-09-20T01:54:47.393Z,11.87
2022-09-20T01:57:57.875Z,11.72
2022-09-20T02:00:35.069Z,11.68
2022-09-20T02:03:29.306Z,11.65
2022-09-20T02:06:22.514Z,11.61
2022-09-20T02:09:20.524Z,11.54
2022-09-20T02:12:18.349Z,11.55
2022-09-20T02:15:34.044Z,11.64
2022-09-20T02:18:14.123Z,11.69
2022-09-20T02:21:01.676Z,11.68
2022-09-20T02:24:00.651Z,11.65
2022-09-20T02:26:59.284Z,11.68
2022-09-20T02:30:34.720Z,11.60
2022-09-20T02:33:17.100Z,11.55
2022-09-20T02:36:24.816Z,11.54
2022-09-20T02:39:08.459Z,11.53
2022-09-20T02:42:05.336Z,11.49
2022-09-20T02:44:54.678Z,11.45
2022-09-20T02:47:40.227Z,11.60
2022-09-20T02:50:45.581Z,11.77
2022-09-20T02:53:45.765Z,11.83
2022-09-20T02:56:29.974Z,11.72
2022-09-20T02:59:15.576Z,11.70
2022-09-20T03:02:10.947Z,11.73
2022-09-20T03:05:09.709Z,11.72
2022-09-20T03:08:18.794Z,11.79
2022-09-20T03:11:31.905Z,11.82
2022-09-20T03:14:16.119Z,11.82
2022-09-20T03:17:05.098Z,11.76
2022-09-20T03:20:09.508Z,11.71
2022-09-20T03:22:41.685Z,11.78
2022-09-20T03:25:47.081Z,11.67
2022-09-20T03:28:41.847Z,11.63
2022-09-20T03:31:26.951Z,11.71
2022-09-20T03:34:10.169Z,11.72
2022-09-20T03:37:34.525Z,11.69
2022-09-20T03:40:40.775Z,11.81
2022-09-20T03:43:43.888Z,11.83
2022-09-20T03:46:27.020Z,11.78
2022-09-20T03:49:40.369Z,11.78
2022-09-20T03:52:19.737Z,11.74
2022-09-20T03:55:41.389Z,11.80
2022-09-20T03:58:28.142Z,11.85
2022-09-20T04:01:46.559Z,11.77
2022-09-20T04:04:25.705Z,11.78
2022-09-20T04:07:23.839Z,11.76
2022-09-20T04:10:18.832Z,11.87
2022-09-20T04:13:16.771Z,11.82
2022-09-20T04:16:12.806Z,11.76
2022-09-20T04:19:12.601Z,11.83
2022-09-20T04:22:05.682Z,11.84
2022-09-20T04:25:20.067Z,11.89
2022-09-20T04:28:00.136Z,11.90
2022-09-20T04:30:31.972Z,11.84
2022-09-20T04:33:29.997Z,11.88
2022-09-20T04:36:54.699Z,12.08
2022-09-20T04:40:06.319Z,12.17
2022-09-20T05:00:22.079Z,12.05
2022-09-20T05:03:32.208Z,11.96
2022-09-20T05:06:38.313Z,11.86
2022-09-20T05:09:29.824Z,11.87
2022-09-20T05:15:41.432Z,11.78
2022-09-20T05:18:26.507Z,11.80
2022-09-20T05:21:35.328Z,11.87
2022-09-20T05:24:32.043Z,11.88
2022-09-20T05:27:17.693Z,11.86
2022-09-20T05:30:38.142Z,11.74
2022-09-20T05:33:52.276Z,11.65
2022-09-20T05:36:41.676Z,11.74
2022-09-20T05:39:49.763Z,11.79
2022-09-20T05:43:01.213Z,11.82
2022-09-20T05:45:57.201Z,11.92
2022-09-20T05:48:28.080Z,12.07
2022-09-20T05:51:31.756Z,12.27
2022-09-20T05:54:54.786Z,12.35
2022-09-20T05:58:05.186Z,12.44
2022-09-20T06:01:07.223Z,12.45
2022-09-20T06:03:46.603Z,12.45
2022-09-20T06:06:40.005Z,12.37
2022-09-20T06:09:36.148Z,12.48
2022-09-20T06:12:16.397Z,12.47
2022-09-20T06:15:13.775Z,12.39
2022-09-20T06:18:00.098Z,12.38
2022-09-20T06:20:48.919Z,12.31
2022-09-20T06:23:18.408Z,12.36
2022-09-20T06:25:57.358Z,12.40
2022-09-20T06:28:34.279Z,12.40
2022-09-20T06:31:07.392Z,12.37
2022-09-20T06:33:45.347Z,12.38
2022-09-20T06:36:53.572Z,12.40
2022-09-20T06:39:59.081Z,12.35
2022-09-20T06:42:27.577Z,12.31
2022-09-20T06:44:55.839Z,12.31
2022-09-20T06:47:23.448Z,12.30
2022-09-20T06:49:50.916Z,12.30
2022-09-20T06:52:22.825Z,12.30
2022-09-20T06:54:54.375Z,12.31
2022-09-20T06:57:38.002Z,12.40
2022-09-20T07:00:10.309Z,12.43
2022-09-20T07:02:38.623Z,12.51
2022-09-20T07:05:07.558Z,12.60
2022-09-20T07:07:35.019Z,12.73
2022-09-20T07:10:04.255Z,12.77
2022-09-20T07:12:34.125Z,12.82
2022-09-20T07:15:01.607Z,12.94
2022-09-20T07:17:29.362Z,12.89
2022-09-20T07:19:57.195Z,12.94
2022-09-20T07:22:24.665Z,12.99
2022-09-20T07:24:52.861Z,13.09
2022-09-20T07:27:21.325Z,13.21
2022-09-20T07:29:48.800Z,13.29
2022-09-20T07:32:17.862Z,13.31
2022-09-20T07:34:45.913Z,13.34
2022-09-20T07:37:14.045Z,13.40
2022-09-20T07:39:41.998Z,13.47
2022-09-20T07:42:09.493Z,13.44
2022-09-20T07:44:37.234Z,13.54
2022-09-20T07:47:06.433Z,13.56
2022-09-20T07:49:34.106Z,13.52
2022-09-20T07:52:02.578Z,13.54
2022-09-20T07:54:30.524Z,13.62
2022-09-20T07:56:58.036Z,13.76
2022-09-20T07:59:26.014Z,13.82
2022-09-20T08:01:53.866Z,13.80
2022-09-20T08:04:21.507Z,13.88
2022-09-20T08:06:49.077Z,14.01
2022-09-20T08:09:16.849Z,13.94
2022-09-20T08:11:44.657Z,13.96
2022-09-20T08:14:17.864Z,14.04
2022-09-20T08:16:50.576Z,14.10
2022-09-20T08:19:23.387Z,14.20
2022-09-20T08:21:53.978Z,14.32
2022-09-20T08:24:23.966Z,14.44
2022-09-20T08:26:52.124Z,14.57
2022-09-20T08:29:19.746Z,14.57
2022-09-20T08:31:48.151Z,14.57
2022-09-20T08:34:17.731Z,14.69
2022-09-20T08:36:47.225Z,14.74
2022-09-20T08:42:15.650Z,14.89
2022-09-20T08:45:01.550Z,14.85
2022-09-20T08:47:35.417Z,14.86
2022-09-20T08:50:10.132Z,15.08
2022-09-20T08:52:40.698Z,15.09
2022-09-20T08:55:20.630Z,15.23
2022-09-20T08:57:55.496Z,15.19
2022-09-20T09:00:33.354Z,15.25
2022-09-20T09:03:14.348Z,15.40
2022-09-20T09:05:46.592Z,15.63
2022-09-20T09:08:18.041Z,15.61
2022-09-20T09:10:59.851Z,15.65
2022-09-20T09:13:34.745Z,15.70
2022-09-20T09:16:12.256Z,15.74
2022-09-20T09:18:43.545Z,15.74
2022-09-20T09:21:27.034Z,15.71
2022-09-20T09:24:19.749Z,15.83
2022-09-20T09:26:47.514Z,15.89
2022-09-20T09:29:24.677Z,15.96
2022-09-20T09:31:56.761Z,16.03
2022-09-20T09:34:38.770Z,16.10
2022-09-20T09:37:25.146Z,16.12
2022-09-20T09:40:24.745Z,16.08
2022-09-20T09:42:56.936Z,16.12
2022-09-20T09:45:38.765Z,16.14
2022-09-20T09:48:28.549Z,16.23
2022-09-20T09:51:23.590Z,16.37
2022-09-20T09:53:52.693Z,16.42
2022-09-20T09:56:35.476Z,16.50
2022-09-20T09:59:30.067Z,16.61
2022-09-20T10:02:28.890Z,16.50
2022-09-20T10:05:33.142Z,16.51
2022-09-20T10:08:40.282Z,16.49
2022-09-20T10:11:48.061Z,16.45
2022-09-20T10:14:46.382Z,16.41
2022-09-20T10:17:25.797Z,16.40
2022-09-20T10:20:01.979Z,16.42
2022-09-20T10:26:45.852Z,16.47
2022-09-20T10:29:36.995Z,16.49
2022-09-20T10:32:19.846Z,16.50
2022-09-20T10:35:20.879Z,16.53
2022-09-20T10:38:14.710Z,16.42
2022-09-20T10:41:25.405Z,16.40
2022-09-20T10:44:18.895Z,16.43
2022-09-20T10:47:00.713Z,16.57
2022-09-20T10:49:40.874Z,16.83
2022-09-20T10:52:51.987Z,16.94
2022-09-20T10:56:08.196Z,16.94
2022-09-20T10:58:49.177Z,17.00
2022-09-20T11:01:32.055Z,17.18
2022-09-20T11:04:24.318Z,17.32
2022-09-20T11:07:13.139Z,17.47
2022-09-20T11:09:56.245Z,17.71
2022-09-20T11:12:42.543Z,17.72
2022-09-20T11:15:30.429Z,17.69
2022-09-20T11:18:23.230Z,17.71
2022-09-20T11:21:21.974Z,17.86
2022-09-20T11:23:58.667Z,18.11
2022-09-20T11:26:44.197Z,18.21
2022-09-20T11:29:58.748Z,18.34
2022-09-20T11:32:37.577Z,18.60
2022-09-20T11:35:11.413Z,18.79
2022-09-20T11:37:46.611Z,18.78
2022-09-20T11:40:28.508Z,18.84
2022-09-20T11:43:00.372Z,18.78
2022-09-20T11:45:30.114Z,18.69
2022-09-20T11:48:25.923Z,18.58
2022-09-20T11:51:45.413Z,18.35
2022-09-20T11:54:55.753Z,18.11
2022-09-20T11:57:24.655Z,18.00
2022-09-20T11:59:57.231Z,17.88
2022-09-20T12:02:53.974Z,17.92
2022-09-20T12:05:38.208Z,18.15
2022-09-20T12:08:26.072Z,18.48
2022-09-20T12:11:14.106Z,18.71
2022-09-20T12:13:58.204Z,19.00
2022-09-20T12:16:46.225Z,19.06
2022-09-20T12:19:34.423Z,19.22
2022-09-20T12:22:03.813Z,19.35
2022-09-20T12:24:43.183Z,19.14
2022-09-20T12:27:29.437Z,18.77
2022-09-20T12:30:20.954Z,18.51
2022-09-20T12:32:58.453Z,18.31
2022-09-20T12:35:44.528Z,18.11
2022-09-20T12:38:28.936Z,17.99
2022-09-20T12:41:09.071Z,17.85
2022-09-20T12:44:18.619Z,17.72
2022-09-20T12:47:17.520Z,17.51
2022-09-20T12:50:06.728Z,17.41
2022-09-20T12:52:58.531Z,17.42
2022-09-20T12:55:47.287Z,17.49
2022-09-20T12:58:14.928Z,17.77
2022-09-20T13:01:00.604Z,18.05
2022-09-20T13:03:37.400Z,18.28
2022-09-20T13:06:08.863Z,18.55
2022-09-20T13:08:55.463Z,18.71
2022-09-20T13:11:48.951Z,18.78
2022-09-20T13:14:22.717Z,18.77
2022-09-20T13:17:06.834Z,18.76
2022-09-20T13:19:41.343Z,18.61
2022-09-20T13:22:30.385Z,18.40
2022-09-20T13:25:03.350Z,18.22
2022-09-20T13:28:26.583Z,18.05
2022-09-20T13:31:22.274Z,17.81
2022-09-20T13:33:50.392Z,17.72
2022-09-20T13:36:30.315Z,17.95
2022-09-20T13:38:59.684Z,18.44
2022-09-20T13:41:32.569Z,18.75
2022-09-20T13:44:01.572Z,19.20
2022-09-20T13:46:33.086Z,19.57
2022-09-20T13:49:23.749Z,19.88
2022-09-20T13:51:52.155Z,19.93
2022-09-20T13:54:32.353Z,19.91
2022-09-20T13:57:12.564Z,19.83
2022-09-20T13:59:47.767Z,19.39
2022-09-20T14:02:31.604Z,19.08
2022-09-20T14:05:06.000Z,18.80
2022-09-20T14:07:36.613Z,18.64
2022-09-20T14:10:25.345Z,18.22
2022-09-20T14:12:54.672Z,18.05
2022-09-20T14:15:22.783Z,17.92
2022-09-20T14:17:53.295Z,17.61
2022-09-20T14:20:21.290Z,17.27
2022-09-20T14:22:48.894Z,17.09
2022-09-20T14:25:16.451Z,16.96
2022-09-20T14:27:44.444Z,16.77
2022-09-20T14:30:32.706Z,16.66
2022-09-20T14:33:01.006Z,16.63
2022-09-20T14:35:29.038Z,16.60
2022-09-20T14:38:07.036Z,16.51
2022-09-20T14:40:45.539Z,16.48
2022-09-20T14:43:34.669Z,16.54
2022-09-20T14:46:15.618Z,16.71
2022-09-20T14:48:45.478Z,16.81
2022-09-20T14:51:16.369Z,16.90
2022-09-20T14:53:52.744Z,17.01
2022-09-20T14:56:35.571Z,17.03
2022-09-20T14:59:07.647Z,17.07
2022-09-20T15:01:41.152Z,17.09
2022-09-20T15:04:21.531Z,17.12
2022-09-20T15:06:50.944Z,17.02
2022-09-20T15:09:21.072Z,17.03
2022-09-20T15:12:01.117Z,17.08
2022-09-20T15:14:29.812Z,17.14
2022-09-20T15:17:00.785Z,17.23
2022-09-20T15:19:30.502Z,17.32
2022-09-20T15:21:59.453Z,17.44
2022-09-20T15:24:27.565Z,17.61
2022-09-20T15:26:55.131Z,17.75
2022-09-20T15:29:22.961Z,17.90
2022-09-20T15:31:50.589Z,17.73
2022-09-20T15:34:18.902Z,17.55
2022-09-20T15:36:46.790Z,17.40
2022-09-20T15:39:14.659Z,17.32
2022-09-20T15:41:43.869Z,17.22
2022-09-20T15:44:11.569Z,17.16
2022-09-20T15:46:39.169Z,16.97
2022-09-20T15:49:08.973Z,16.79
2022-09-20T15:51:39.114Z,16.69
2022-09-20T15:54:07.947Z,16.47
2022-09-20T15:56:37.771Z,16.41
2022-09-20T15:59:08.741Z,16.31
2022-09-20T16:01:42.472Z,16.41
2022-09-20T16:04:15.714Z,16.65
2022-09-20T16:06:45.586Z,16.71
2022-09-20T16:09:14.035Z,16.66
2022-09-20T16:11:41.907Z,16.64
2022-09-20T16:14:09.559Z,16.64
2022-09-20T16:16:40.346Z,16.56
2022-09-20T16:19:21.011Z,16.47
2022-09-20T16:21:58.268Z,16.33
2022-09-20T16:24:34.011Z,16.17
2022-09-20T16:27:06.277Z,16.03
2022-09-20T16:29:34.653Z,15.96
2022-09-20T16:32:03.724Z,15.88
2022-09-20T16:34:35.228Z,15.81
2022-09-20T16:37:15.884Z,15.74
2022-09-20T16:39:44.466Z,15.63
2022-09-20T16:42:13.310Z,15.53
2022-09-20T16:44:43.027Z,15.50
2022-09-20T16:47:18.740Z,15.43
2022-09-20T16:49:47.293Z,15.39
2022-09-20T16:52:15.205Z,15.32
2022-09-20T16:54:42.843Z,15.22
2022-09-20T16:57:10.777Z,15.15
2022-09-20T16:59:38.552Z,15.09
2022-09-20T17:02:06.560Z,15.00
2022-09-20T17:04:34.095Z,14.94
2022-09-20T17:07:02.271Z,14.88
2022-09-20T17:09:29.906Z,14.84
2022-09-20T17:11:57.446Z,14.80
2022-09-20T17:14:25.781Z,14.78
2022-09-20T17:16:53.425Z,14.75
2022-09-20T17:19:21.325Z,14.74
2022-09-20T17:21:50.883Z,14.75
2022-09-20T17:24:20.335Z,14.71
2022-09-20T17:26:49.006Z,14.68
2022-09-20T17:29:19.034Z,14.62
2022-09-20T17:31:54.979Z,14.58
2022-09-20T17:34:24.728Z,14.56
2022-09-20T17:36:55.165Z,14.58
2022-09-20T17:39:25.387Z,14.59
2022-09-20T17:41:53.592Z,14.59
2022-09-20T17:44:21.495Z,14.64
2022-09-20T17:46:51.538Z,14.60
2022-09-20T17:49:22.362Z,14.58
2022-09-20T17:51:52.678Z,14.57
2022-09-20T17:54:21.995Z,14.59
2022-09-20T17:56:52.358Z,14.63
2022-09-20T17:59:20.859Z,14.64
2022-09-20T18:01:51.073Z,14.66
2022-09-20T18:04:21.268Z,14.69
2022-09-20T18:06:52.955Z,14.70
2022-09-20T18:09:24.221Z,14.72
2022-09-20T18:11:54.974Z,14.71
2022-09-20T18:14:28.051Z,14.73
2022-09-20T18:17:01.130Z,14.73
2022-09-20T18:19:33.834Z,14.76
2022-09-20T18:22:02.894Z,14.72
2022-09-20T18:24:30.887Z,14.70
2022-09-20T18:27:00.719Z,14.69
2022-09-20T18:29:29.505Z,14.67
2022-09-20T18:31:59.707Z,14.68
2022-09-20T18:34:32.094Z,14.58
2022-09-20T18:37:01.348Z,14.53
2022-09-20T18:39:35.171Z,14.51
2022-09-20T18:42:03.889Z,14.51
2022-09-20T18:44:34.344Z,14.49
2022-09-20T18:47:04.994Z,14.43
2022-09-20T18:49:36.748Z,14.40
2022-09-20T18:52:04.825Z,14.31
2022-09-20T18:54:33.577Z,14.26
2022-09-20T18:57:02.210Z,14.23
2022-09-20T18:59:30.312Z,14.25
2022-09-20T19:02:35.322Z,14.26
2022-09-20T19:05:23.714Z,14.19
2022-09-20T19:08:34.502Z,14.09
2022-09-20T19:11:12.076Z,14.00
2022-09-20T19:14:07.176Z,13.99
2022-09-20T19:16:37.040Z,13.99
2022-09-20T19:19:45.567Z,14.00
2022-09-20T19:22:19.988Z,13.91
2022-09-20T19:25:25.247Z,13.88
2022-09-20T19:27:53.728Z,13.91
2022-09-20T19:30:22.757Z,13.80
2022-09-20T19:32:51.014Z,13.81
2022-09-20T19:35:35.967Z,13.74
2022-09-20T19:38:35.248Z,13.74
2022-09-20T19:41:39.710Z,13.73
2022-09-20T19:44:29.803Z,13.77
2022-09-20T19:47:01.952Z,13.81
2022-09-20T19:49:40.845Z,13.74
2022-09-20T19:52:13.044Z,13.66
2022-09-20T19:54:46.268Z,13.64
2022-09-20T19:57:29.062Z,13.65
2022-09-20T19:59:57.943Z,13.61
2022-09-20T20:02:26.117Z,13.61
2022-09-20T20:04:54.090Z,13.67
2022-09-20T20:07:40.512Z,13.53
2022-09-20T20:10:23.730Z,13.45
2022-09-20T20:13:03.100Z,13.49
2022-09-20T20:15:53.139Z,13.36
2022-09-20T20:18:51.005Z,13.25
2022-09-20T20:21:35.464Z,13.22
2022-09-20T20:24:09.410Z,13.19
2022-09-20T20:26:37.259Z,13.21
2022-09-20T20:29:05.002Z,13.16
2022-09-20T20:31:33.086Z,13.17
2022-09-20T20:34:00.996Z,13.15
2022-09-20T20:36:28.599Z,13.10
2022-09-20T20:38:56.777Z,13.03
2022-09-20T20:41:24.718Z,12.97
2022-09-20T20:43:57.280Z,12.89
2022-09-20T20:46:26.027Z,12.80
2022-09-20T20:48:54.056Z,12.73
2022-09-20T20:51:23.406Z,12.69
2022-09-20T20:53:55.592Z,12.70
2022-09-20T20:56:29.916Z,12.62
2022-09-20T20:59:02.110Z,12.66
2022-09-20T21:01:36.329Z,12.72
2022-09-20T21:04:07.884Z,12.79
2022-09-20T21:06:38.202Z,12.76
2022-09-20T21:09:07.349Z,12.81
2022-09-20T21:11:44.449Z,12.85
2022-09-20T21:14:12.903Z,12.93
2022-09-20T21:16:43.358Z,12.89
2022-09-20T21:19:15.684Z,12.94
2022-09-20T21:21:47.176Z,12.93
2022-09-20T21:24:17.433Z,12.95
2022-09-20T21:26:49.018Z,12.97
2022-09-20T21:29:17.085Z,13.00
2022-09-20T21:31:47.248Z,12.99
2022-09-20T21:34:16.218Z,12.96
2022-09-20T21:36:47.208Z,12.99
2022-09-20T21:39:15.022Z,12.91
2022-09-20T21:41:42.936Z,12.87
2022-09-20T21:44:11.602Z,12.94
2022-09-20T21:46:41.690Z,12.86
2022-09-20T21:49:11.874Z,12.85
2022-09-20T21:51:45.268Z,12.88
2022-09-20T21:54:13.164Z,12.95
2022-09-20T21:56:41.503Z,12.95
2022-09-20T21:59:09.516Z,12.91
2022-09-20T22:01:40.349Z,12.81
2022-09-20T22:04:10.828Z,12.71
2022-09-20T22:06:46.361Z,12.66
2022-09-20T22:09:17.030Z,12.69
2022-09-20T22:11:49.037Z,12.76
2022-09-20T22:14:19.630Z,12.81
2022-09-20T22:16:51.282Z,12.83
2022-09-20T22:19:19.294Z,12.88
2022-09-20T22:21:49.956Z,12.80
2022-09-20T22:24:19.001Z,12.79
2022-09-20T22:26:49.643Z,12.72
2022-09-20T22:29:19.115Z,12.71
2022-09-20T22:31:50.360Z,12.67
2022-09-20T22:34:21.766Z,12.58
2022-09-20T22:36:50.666Z,12.46
2022-09-20T22:39:18.853Z,12.35
2022-09-20T22:41:48.021Z,12.32
2022-09-20T22:44:16.036Z,12.30
2022-09-20T22:46:43.585Z,12.26
2022-09-20T22:49:11.115Z,12.20
2022-09-20T22:51:39.222Z,12.12
2022-09-20T22:54:10.569Z,12.08
2022-09-20T22:56:41.261Z,11.98
2022-09-20T22:59:12.514Z,11.97
2022-09-20T23:01:45.724Z,12.02
2022-09-20T23:04:20.165Z,12.12
2022-09-20T23:06:55.041Z,12.26
2022-09-20T23:09:26.446Z,12.34
2022-09-20T23:11:54.097Z,12.26
2022-09-20T23:14:23.412Z,12.21
2022-09-20T23:16:51.482Z,12.05
2022-09-20T23:19:19.057Z,12.01
2022-09-20T23:21:46.654Z,12.08
2022-09-20T23:24:16.623Z,12.02
2022-09-20T23:26:45.309Z,12.05
2022-09-20T23:29:16.061Z,12.09
2022-09-20T23:31:47.256Z,12.13
2022-09-20T23:34:17.372Z,12.19
2022-09-20T23:36:45.682Z,12.18
2022-09-20T23:39:13.836Z,12.01
2022-09-20T23:41:42.227Z,11.98
2022-09-20T23:44:11.814Z,11.95
2022-09-20T23:46:39.638Z,11.91
2022-09-20T23:49:09.366Z,11.91
2022-09-20T23:51:37.747Z,11.82
2022-09-20T23:54:05.677Z,11.84
2022-09-20T23:56:33.778Z,11.90
2022-09-20T23:59:01.588Z,11.92
